Auburn, New Hampshire
Current Conditions -  °F | °C
As of 9:08 AM on Thursday 23 Oct 2014 (Local Time) from KMHT Reporting Station
Moderate Rain Moderate Rain  
Wind Chill: 10°   Ceiling: 1300
Heat Index: 10°   Visibility: 3mi
Dew Point:   Wind: 15mph
Humidity: 86%   Direction: 350°N
Pressure: 29.72"   Gusts: NA
Location:  43°N, 71.35°W
Report Text: KMHT 231308Z 35013KT 3SM RA BR OVC013 10/08 A2972 RMK AO2 P0008 T01000078
Loading
Personal Weather Stations






























Interactive Weather Map
Tropical Storm Tracking
New forecast layout! Learn more

10-Day Weather Forecast

Advertisements
Track Severe Weather on mobile